createdAt,value
2017-09-16T00:02:13.689Z,83.89
2017-09-16T00:04:41.128Z,84.64
2017-09-16T00:07:08.587Z,85.31
2017-09-16T00:09:36.027Z,84.16
2017-09-16T00:12:03.493Z,84.78
2017-09-16T00:14:30.956Z,84.72
2017-09-16T00:16:58.433Z,84.81
2017-09-16T00:19:25.940Z,84.77
2017-09-16T00:21:53.503Z,84.43
2017-09-16T00:24:21.065Z,84.32
2017-09-16T00:26:48.617Z,83.91
2017-09-16T00:29:16.064Z,83.98
2017-09-16T00:31:43.531Z,83.60
2017-09-16T00:34:10.977Z,83.89
2017-09-16T00:36:38.467Z,83.56
2017-09-16T00:39:06.089Z,83.94
2017-09-16T00:41:33.541Z,84.81
2017-09-16T00:44:01.021Z,85.52
2017-09-16T00:46:28.477Z,84.89
2017-09-16T00:48:55.957Z,85.05
2017-09-16T00:51:23.417Z,84.87
2017-09-16T00:53:50.883Z,85.10
2017-09-16T00:56:18.333Z,84.88
2017-09-16T00:58:45.944Z,84.65
2017-09-16T01:01:13.400Z,84.83
2017-09-16T01:03:40.897Z,84.06
2017-09-16T01:06:08.426Z,84.35
2017-09-16T01:08:35.876Z,84.34
2017-09-16T01:11:03.346Z,84.83
2017-09-16T01:13:30.856Z,84.54
2017-09-16T01:15:58.345Z,84.60
2017-09-16T01:18:25.792Z,84.46
2017-09-16T01:20:53.263Z,84.18
2017-09-16T01:23:20.705Z,84.11
2017-09-16T01:25:48.338Z,84.12
2017-09-16T01:28:15.809Z,84.19
2017-09-16T01:30:43.283Z,85.09
2017-09-16T01:33:10.740Z,85.21
2017-09-16T01:35:38.179Z,85.83
2017-09-16T01:38:05.650Z,85.87
2017-09-16T01:40:33.097Z,85.66
2017-09-16T01:43:00.578Z,86.24
2017-09-16T01:45:28.065Z,86.12
2017-09-16T01:47:55.601Z,86.34
2017-09-16T01:50:23.172Z,85.49
2017-09-16T01:52:51.101Z,85.83
2017-09-16T01:55:18.553Z,85.65
2017-09-16T01:57:46.034Z,84.97
2017-09-16T02:00:13.485Z,85.86
2017-09-16T02:02:40.960Z,85.80
2017-09-16T02:05:08.516Z,86.29
2017-09-16T02:07:35.985Z,85.39
2017-09-16T02:10:03.437Z,85.02
2017-09-16T02:12:30.985Z,84.81
2017-09-16T02:14:58.460Z,85.10
2017-09-16T02:17:25.908Z,84.96
2017-09-16T02:19:53.394Z,85.30
2017-09-16T02:22:20.921Z,85.00
2017-09-16T02:24:48.413Z,84.77
2017-09-16T02:27:15.859Z,84.73
2017-09-16T02:29:43.336Z,85.31
2017-09-16T02:32:10.792Z,85.04
2017-09-16T02:34:38.303Z,85.14
2017-09-16T02:37:05.763Z,85.11
2017-09-16T02:39:33.336Z,84.72
2017-09-16T02:42:00.794Z,84.51
2017-09-16T02:44:28.250Z,85.25
2017-09-16T02:46:55.795Z,84.81
2017-09-16T02:49:23.242Z,85.48
2017-09-16T02:51:50.713Z,84.93
2017-09-16T02:54:18.168Z,84.55
2017-09-16T02:56:45.712Z,84.88
2017-09-16T02:59:13.681Z,85.20
2017-09-16T03:01:41.204Z,85.87
2017-09-16T03:04:08.648Z,85.88
2017-09-16T03:06:36.141Z,85.27
2017-09-16T03:09:03.593Z,84.94
2017-09-16T03:11:31.128Z,84.84
2017-09-16T03:13:58.630Z,83.51
2017-09-16T03:16:26.083Z,84.71
2017-09-16T03:18:53.561Z,84.96
2017-09-16T03:21:21.028Z,84.81
2017-09-16T03:23:48.533Z,84.88
2017-09-16T03:26:15.971Z,85.34
2017-09-16T03:28:43.463Z,85.59
2017-09-16T03:31:10.914Z,85.37
2017-09-16T03:33:38.387Z,85.32
2017-09-16T03:36:05.940Z,85.54
2017-09-16T03:38:33.420Z,85.65
2017-09-16T03:41:00.889Z,85.87
2017-09-16T03:43:28.353Z,85.47
2017-09-16T03:45:56.063Z,85.71
2017-09-16T03:48:23.557Z,85.22
2017-09-16T03:50:51.020Z,84.48
2017-09-16T03:53:18.477Z,85.16
2017-09-16T03:55:46.002Z,85.12
2017-09-16T03:58:13.665Z,85.39
2017-09-16T04:00:41.137Z,84.44
2017-09-16T04:03:08.596Z,84.48
2017-09-16T04:05:36.089Z,84.95
2017-09-16T04:08:03.535Z,85.18
2017-09-16T04:10:31.014Z,85.92
2017-09-16T04:12:58.477Z,85.21
2017-09-16T04:15:25.971Z,85.08
2017-09-16T04:17:53.418Z,85.13
2017-09-16T04:20:20.893Z,85.34
2017-09-16T04:22:48.344Z,84.96
2017-09-16T04:25:15.797Z,83.73
2017-09-16T04:27:43.277Z,83.91
2017-09-16T04:30:10.736Z,85.00
2017-09-16T04:32:38.220Z,85.31
2017-09-16T04:35:05.677Z,85.80
2017-09-16T04:37:33.142Z,85.70
2017-09-16T04:40:00.586Z,85.77
2017-09-16T04:42:28.058Z,84.42
2017-09-16T04:44:55.666Z,85.79
2017-09-16T04:47:23.145Z,86.27
2017-09-16T04:49:50.593Z,86.47
2017-09-16T04:52:18.129Z,85.98
2017-09-16T04:54:45.571Z,86.92
2017-09-16T04:57:13.066Z,86.56
2017-09-16T04:59:40.511Z,86.33
2017-09-16T05:02:07.963Z,86.18
2017-09-16T05:04:35.432Z,86.83
2017-09-16T05:07:02.880Z,87.03
2017-09-16T05:09:30.361Z,88.11
2017-09-16T05:11:57.868Z,87.68
2017-09-16T05:14:25.332Z,87.12
2017-09-16T05:16:52.809Z,87.27
2017-09-16T05:19:20.280Z,88.39
2017-09-16T05:21:47.728Z,88.29
2017-09-16T05:24:15.227Z,89.29
2017-09-16T05:26:42.693Z,89.87
2017-09-16T05:29:10.166Z,90.23
2017-09-16T05:31:37.861Z,91.05
2017-09-16T05:34:05.353Z,91.37
2017-09-16T05:36:32.798Z,91.97
2017-09-16T05:39:00.262Z,92.10
2017-09-16T05:41:27.741Z,92.09
2017-09-16T05:43:55.187Z,92.52
2017-09-16T05:46:22.656Z,92.34
2017-09-16T05:48:50.155Z,92.27
2017-09-16T05:51:17.684Z,92.63
2017-09-16T05:53:45.127Z,92.85
2017-09-16T05:56:12.598Z,93.10
2017-09-16T05:58:40.054Z,92.60
2017-09-16T06:01:07.613Z,90.27
2017-09-16T06:03:35.090Z,89.95
2017-09-16T06:06:02.565Z,90.68
2017-09-16T06:08:30.022Z,89.38
2017-09-16T06:10:57.505Z,89.36
2017-09-16T06:13:24.982Z,90.71
2017-09-16T06:15:52.450Z,87.81
2017-09-16T06:18:19.943Z,89.93
2017-09-16T06:20:47.410Z,90.77
2017-09-16T06:23:14.900Z,89.59
2017-09-16T06:25:42.354Z,89.47
2017-09-16T06:28:09.823Z,89.44
2017-09-16T06:30:37.269Z,89.18
2017-09-16T06:33:04.766Z,90.36
2017-09-16T06:35:32.212Z,90.43
2017-09-16T06:37:59.674Z,90.27
2017-09-16T06:40:27.240Z,90.52
2017-09-16T06:42:54.784Z,87.20
2017-09-16T06:45:22.234Z,89.25
2017-09-16T06:47:49.695Z,89.24
2017-09-16T06:50:17.153Z,87.97
2017-09-16T06:52:44.637Z,89.01
2017-09-16T06:55:12.152Z,90.07
2017-09-16T06:57:39.609Z,89.51
2017-09-16T07:00:07.101Z,88.43
2017-09-16T07:02:34.560Z,89.48
2017-09-16T07:05:02.038Z,89.80
2017-09-16T07:07:29.488Z,89.22
2017-09-16T07:09:57.168Z,89.03
2017-09-16T07:12:24.694Z,89.71
2017-09-16T07:14:52.420Z,88.76
2017-09-16T07:17:19.872Z,88.96
2017-09-16T07:19:47.363Z,85.03
2017-09-16T07:22:15.656Z,85.84
2017-09-16T07:24:43.133Z,86.31
2017-09-16T07:27:10.596Z,84.61
2017-09-16T07:29:38.049Z,86.08
2017-09-16T07:32:05.551Z,85.59
2017-09-16T07:34:33.014Z,87.25
2017-09-16T07:37:00.501Z,86.78
2017-09-16T07:39:27.967Z,85.38
2017-09-16T07:41:55.679Z,84.68
2017-09-16T07:44:23.133Z,85.62
2017-09-16T07:46:50.609Z,82.93
2017-09-16T07:49:18.161Z,83.63
2017-09-16T07:51:45.641Z,84.81
2017-09-16T07:54:13.129Z,83.20
2017-09-16T07:56:40.604Z,84.35
2017-09-16T07:59:08.097Z,85.49
2017-09-16T08:01:35.588Z,86.24
2017-09-16T08:04:03.190Z,85.28
2017-09-16T08:06:30.649Z,84.62
2017-09-16T08:08:58.146Z,82.47
2017-09-16T08:11:25.599Z,82.23
2017-09-16T08:13:53.067Z,82.27
2017-09-16T08:16:20.524Z,83.93
2017-09-16T08:18:48.004Z,83.02
2017-09-16T08:21:15.461Z,83.79
2017-09-16T08:23:42.953Z,82.54
2017-09-16T08:26:10.418Z,81.10
2017-09-16T08:28:37.912Z,80.41
2017-09-16T08:31:05.355Z,78.68
2017-09-16T08:33:32.898Z,79.87
2017-09-16T08:36:00.394Z,79.03
2017-09-16T08:38:27.852Z,79.77
2017-09-16T08:40:55.322Z,79.42
2017-09-16T08:43:22.777Z,78.55
2017-09-16T08:45:50.250Z,77.74
2017-09-16T08:48:17.695Z,77.68
2017-09-16T08:50:45.175Z,78.42
2017-09-16T08:53:12.715Z,78.30
2017-09-16T08:55:40.212Z,78.42
2017-09-16T08:58:07.668Z,78.14
2017-09-16T09:00:35.168Z,77.84
2017-09-16T09:03:02.628Z,77.16
2017-09-16T09:05:30.091Z,74.79
2017-09-16T09:07:57.566Z,75.83
2017-09-16T09:10:25.050Z,74.13
2017-09-16T09:12:52.511Z,74.21
2017-09-16T09:15:20.724Z,73.61
2017-09-16T09:17:48.181Z,74.28
2017-09-16T09:20:15.662Z,74.80
2017-09-16T09:22:43.129Z,73.52
2017-09-16T09:25:10.608Z,74.72
2017-09-16T09:27:38.161Z,73.16
2017-09-16T09:30:05.664Z,71.40
2017-09-16T09:32:33.111Z,73.19
2017-09-16T09:35:00.641Z,72.09
2017-09-16T09:37:28.099Z,71.56
2017-09-16T09:39:55.543Z,71.17
2017-09-16T09:42:23.018Z,72.41
2017-09-16T09:44:50.492Z,72.05
2017-09-16T09:47:17.962Z,71.75
2017-09-16T09:49:45.429Z,70.97
2017-09-16T09:52:12.908Z,70.72
2017-09-16T09:54:40.351Z,71.00
2017-09-16T09:57:07.846Z,70.51
2017-09-16T09:59:35.310Z,69.74
2017-09-16T10:02:03.171Z,69.90
2017-09-16T10:04:30.617Z,68.78
2017-09-16T10:06:58.083Z,68.40
2017-09-16T10:09:25.527Z,67.42
2017-09-16T10:11:53.039Z,66.21
2017-09-16T10:14:20.509Z,65.42
2017-09-16T10:16:47.993Z,65.33
2017-09-16T10:19:15.483Z,64.94
2017-09-16T10:21:42.979Z,64.95
2017-09-16T10:24:10.441Z,64.18
2017-09-16T10:26:37.913Z,64.25
2017-09-16T10:29:05.369Z,64.66
2017-09-16T10:31:32.849Z,65.12
2017-09-16T10:34:00.300Z,64.99
2017-09-16T10:36:27.815Z,62.52
2017-09-16T10:38:55.276Z,64.47
2017-09-16T10:41:22.744Z,63.74
2017-09-16T10:43:50.196Z,64.16
2017-09-16T10:46:17.676Z,64.31
2017-09-16T10:48:45.554Z,64.52
2017-09-16T10:51:13.044Z,65.83
2017-09-16T10:53:40.529Z,63.38
2017-09-16T10:56:08.064Z,62.73
2017-09-16T10:58:35.541Z,63.85
2017-09-16T11:01:03.152Z,63.37
2017-09-16T11:03:30.628Z,63.27
2017-09-16T11:05:58.075Z,61.62
2017-09-16T11:08:25.554Z,63.03
2017-09-16T11:10:53.031Z,62.99
2017-09-16T11:13:20.537Z,63.35
2017-09-16T11:15:47.980Z,63.86
2017-09-16T11:18:15.452Z,64.44
2017-09-16T11:20:42.904Z,64.74
2017-09-16T11:23:10.376Z,64.15
2017-09-16T11:25:37.822Z,65.60
2017-09-16T11:28:05.302Z,64.74
2017-09-16T11:30:32.771Z,63.72
2017-09-16T11:33:00.235Z,63.33
2017-09-16T11:35:27.937Z,62.24
2017-09-16T11:37:55.499Z,63.15
2017-09-16T11:40:22.955Z,63.31
2017-09-16T11:42:50.429Z,62.00
2017-09-16T11:45:17.889Z,61.85
2017-09-16T11:47:45.537Z,60.95
2017-09-16T11:50:12.993Z,61.00
2017-09-16T11:52:40.541Z,60.04
2017-09-16T11:55:08.004Z,61.13
2017-09-16T11:57:35.472Z,63.68
2017-09-16T12:00:02.916Z,64.42
2017-09-16T12:02:30.384Z,63.94
2017-09-16T12:04:57.933Z,59.85
2017-09-16T12:07:25.405Z,61.79
2017-09-16T12:09:52.886Z,62.10
2017-09-16T12:12:20.352Z,61.87
2017-09-16T12:14:47.841Z,62.13
2017-09-16T12:17:15.297Z,60.62
2017-09-16T12:19:42.885Z,58.71
2017-09-16T12:22:10.356Z,60.58
2017-09-16T12:24:37.831Z,59.79
2017-09-16T12:27:05.272Z,58.35
2017-09-16T12:29:32.750Z,59.56
2017-09-16T12:32:00.207Z,58.68
2017-09-16T12:34:27.992Z,57.19
2017-09-16T12:36:55.448Z,57.07
2017-09-16T12:39:22.943Z,57.36
2017-09-16T12:41:50.391Z,58.29
2017-09-16T12:44:17.860Z,59.56
2017-09-16T12:46:45.303Z,59.06
2017-09-16T12:49:12.781Z,58.89
2017-09-16T12:51:40.228Z,58.33
2017-09-16T12:54:07.703Z,61.40
2017-09-16T12:56:35.173Z,62.07
2017-09-16T12:59:02.657Z,61.18
2017-09-16T13:01:30.103Z,62.63
2017-09-16T13:03:57.558Z,61.79
2017-09-16T13:06:25.058Z,61.58
2017-09-16T13:08:52.503Z,61.04
2017-09-16T13:11:19.981Z,60.86
2017-09-16T13:13:47.526Z,59.68
2017-09-16T13:16:14.992Z,60.17
2017-09-16T13:18:42.456Z,59.95
2017-09-16T13:21:10.044Z,59.63
2017-09-16T13:23:37.497Z,60.22
2017-09-16T13:26:04.965Z,59.29
2017-09-16T13:28:32.412Z,58.45
2017-09-16T13:30:59.929Z,58.71
2017-09-16T13:33:27.488Z,58.94
2017-09-16T13:35:54.955Z,59.73
2017-09-16T13:38:22.414Z,59.58
2017-09-16T13:40:49.888Z,58.56
2017-09-16T13:43:17.366Z,58.54
2017-09-16T13:45:44.883Z,58.55
2017-09-16T13:48:12.433Z,58.83
2017-09-16T13:50:39.906Z,58.85
2017-09-16T13:53:07.363Z,58.38
2017-09-16T13:55:34.803Z,57.63
2017-09-16T13:58:02.376Z,57.69
2017-09-16T14:00:29.830Z,58.75
2017-09-16T14:02:57.315Z,59.03
2017-09-16T14:05:24.763Z,57.64
2017-09-16T14:07:52.854Z,51.71
2017-09-16T14:10:20.321Z,52.14
2017-09-16T14:12:47.800Z,53.32
2017-09-16T14:15:15.273Z,55.29
2017-09-16T14:17:42.783Z,56.43
2017-09-16T14:20:10.271Z,56.82
2017-09-16T14:22:37.750Z,58.40
2017-09-16T14:25:05.207Z,57.20
2017-09-16T14:27:32.677Z,56.87
2017-09-16T14:30:00.135Z,58.06
2017-09-16T14:32:27.605Z,57.81
2017-09-16T14:34:55.056Z,57.79
2017-09-16T14:37:22.530Z,56.88
2017-09-16T14:39:50.010Z,56.91
2017-09-16T14:42:17.462Z,56.73
2017-09-16T14:44:44.945Z,56.81
2017-09-16T14:47:12.416Z,55.65
2017-09-16T14:49:39.890Z,56.31
2017-09-16T14:52:07.344Z,55.53
2017-09-16T14:54:35.163Z,57.33
2017-09-16T14:57:02.770Z,57.48
2017-09-16T14:59:30.239Z,58.10
2017-09-16T15:01:57.713Z,57.85
2017-09-16T15:04:25.205Z,56.70
2017-09-16T15:06:53.051Z,56.19
2017-09-16T15:09:20.544Z,55.83
2017-09-16T15:11:48.233Z,54.86
2017-09-16T15:14:15.718Z,58.31
2017-09-16T15:16:43.408Z,59.43
2017-09-16T15:19:10.904Z,60.70
2017-09-16T15:21:38.378Z,61.15
2017-09-16T15:24:05.912Z,61.43
2017-09-16T15:26:33.391Z,61.91
2017-09-16T15:29:00.920Z,62.78
2017-09-16T15:31:28.408Z,62.48
2017-09-16T15:33:55.920Z,63.35
2017-09-16T15:36:23.402Z,64.10
2017-09-16T15:38:50.873Z,63.50
2017-09-16T15:41:18.919Z,65.00
2017-09-16T15:43:46.471Z,66.50
2017-09-16T15:46:14.044Z,67.37
2017-09-16T15:48:41.487Z,68.91
2017-09-16T15:51:09.044Z,69.48
2017-09-16T15:53:36.504Z,69.82
2017-09-16T15:56:03.990Z,70.75
2017-09-16T15:58:31.435Z,70.95
2017-09-16T16:00:58.927Z,70.99
2017-09-16T16:03:26.407Z,71.96
2017-09-16T16:05:53.855Z,71.80
2017-09-16T16:08:21.322Z,71.38
2017-09-16T16:10:48.805Z,70.86
2017-09-16T16:13:16.297Z,71.15
2017-09-16T16:15:43.821Z,71.62
2017-09-16T16:18:11.305Z,71.34
2017-09-16T16:20:38.776Z,70.46
2017-09-16T16:23:06.257Z,70.18
2017-09-16T16:25:33.745Z,70.29
2017-09-16T16:28:01.530Z,70.19
2017-09-16T16:30:28.994Z,70.61
2017-09-16T16:32:56.450Z,70.14
2017-09-16T16:35:23.920Z,71.96
2017-09-16T16:37:51.367Z,74.02
2017-09-16T16:40:19.021Z,75.68
2017-09-16T16:42:46.481Z,77.56
2017-09-16T16:45:13.955Z,79.03
2017-09-16T16:47:41.410Z,81.76
2017-09-16T16:50:08.892Z,82.10
2017-09-16T16:52:36.349Z,82.53
2017-09-16T16:55:03.936Z,83.41
2017-09-16T16:57:31.410Z,82.53
2017-09-16T16:59:58.880Z,82.53
2017-09-16T17:02:26.336Z,83.82
2017-09-16T17:04:53.865Z,83.21
2017-09-16T17:07:21.433Z,83.34
2017-09-16T17:09:48.894Z,82.66
2017-09-16T17:12:16.373Z,82.18
2017-09-16T17:14:43.952Z,79.92
2017-09-16T17:17:11.455Z,81.71
2017-09-16T17:19:38.907Z,79.43
2017-09-16T17:22:06.367Z,80.91
2017-09-16T17:24:33.820Z,80.18
2017-09-16T17:27:01.578Z,82.08
2017-09-16T17:29:29.027Z,81.71
2017-09-16T17:31:56.505Z,82.88
2017-09-16T17:34:23.980Z,81.98
2017-09-16T17:36:51.522Z,81.60
2017-09-16T17:39:18.972Z,82.75
2017-09-16T17:41:46.542Z,82.17
2017-09-16T17:44:14.025Z,82.22
2017-09-16T17:46:41.481Z,83.47
2017-09-16T17:49:09.000Z,84.01
2017-09-16T17:51:36.459Z,83.20
2017-09-16T17:54:04.020Z,84.65
2017-09-16T17:56:31.474Z,85.30
2017-09-16T17:58:58.936Z,86.30
2017-09-16T18:01:26.490Z,86.15
2017-09-16T18:03:53.943Z,85.27
2017-09-16T18:06:21.421Z,86.46
2017-09-16T18:08:48.875Z,85.79
2017-09-16T18:11:16.353Z,85.92
2017-09-16T18:13:43.993Z,85.93
2017-09-16T18:16:11.469Z,86.66
2017-09-16T18:18:38.925Z,86.84
2017-09-16T18:21:06.408Z,86.81
2017-09-16T18:23:33.869Z,85.52
2017-09-16T18:26:01.381Z,85.70
2017-09-16T18:28:28.835Z,85.93
2017-09-16T18:30:56.304Z,86.79
2017-09-16T18:33:23.748Z,85.88
2017-09-16T18:35:51.219Z,85.56
2017-09-16T18:38:18.762Z,85.23
2017-09-16T18:40:46.242Z,85.17
2017-09-16T18:43:13.716Z,86.74
2017-09-16T18:45:41.173Z,86.46
2017-09-16T18:48:08.653Z,86.95
2017-09-16T18:50:36.118Z,86.47
2017-09-16T18:53:03.601Z,86.10
2017-09-16T18:55:31.058Z,86.03
2017-09-16T18:57:58.523Z,86.54
2017-09-16T19:00:26.178Z,86.66
2017-09-16T19:02:53.721Z,86.86
2017-09-16T19:05:21.285Z,87.45
2017-09-16T19:07:48.769Z,88.26
2017-09-16T19:10:16.219Z,88.31
2017-09-16T19:12:43.692Z,87.95
2017-09-16T19:15:11.212Z,88.24
2017-09-16T19:17:38.667Z,89.60
2017-09-16T19:20:06.141Z,88.92
2017-09-16T19:22:33.597Z,88.14
2017-09-16T19:25:01.078Z,88.59
2017-09-16T19:27:28.553Z,87.41
2017-09-16T19:29:56.042Z,87.03
2017-09-16T19:32:23.538Z,87.58
2017-09-16T19:34:51.078Z,88.78
2017-09-16T19:37:18.537Z,88.96
2017-09-16T19:39:46.027Z,87.85
2017-09-16T19:42:13.764Z,87.93
2017-09-16T19:44:41.305Z,87.81
2017-09-16T19:47:09.118Z,88.18
2017-09-16T19:49:36.632Z,88.71
2017-09-16T19:52:04.209Z,88.32
2017-09-16T19:54:32.033Z,88.52
2017-09-16T19:56:59.541Z,88.83
2017-09-16T19:59:27.082Z,88.58
2017-09-16T20:01:54.686Z,88.25
2017-09-16T20:04:22.241Z,88.38
2017-09-16T20:06:49.747Z,87.90
2017-09-16T20:09:17.212Z,87.61
2017-09-16T20:11:44.818Z,87.89
2017-09-16T20:14:12.329Z,87.19
2017-09-16T20:16:39.809Z,86.79
2017-09-16T20:19:07.314Z,87.36
2017-09-16T20:21:34.827Z,88.11
2017-09-16T20:24:02.274Z,87.88
2017-09-16T20:26:29.781Z,88.34
2017-09-16T20:28:57.267Z,88.55
2017-09-16T20:31:25.044Z,88.29
2017-09-16T20:33:52.701Z,88.60
2017-09-16T20:36:20.504Z,88.10
2017-09-16T20:38:48.611Z,88.20
2017-09-16T20:41:16.065Z,88.05
2017-09-16T20:43:43.845Z,88.07
2017-09-16T20:46:11.385Z,87.81
2017-09-16T20:48:38.966Z,87.96
2017-09-16T20:51:06.424Z,88.13
2017-09-16T20:53:33.926Z,87.77
2017-09-16T20:56:01.395Z,88.05
2017-09-16T20:58:28.844Z,88.30
2017-09-16T21:00:56.320Z,88.01
2017-09-16T21:03:23.797Z,88.21
2017-09-16T21:05:51.272Z,88.18
2017-09-16T21:08:18.741Z,88.19
2017-09-16T21:10:46.272Z,88.76
2017-09-16T21:13:13.725Z,88.59
2017-09-16T21:15:41.210Z,88.38
2017-09-16T21:18:08.672Z,88.60
2017-09-16T21:20:36.156Z,88.81
2017-09-16T21:23:03.661Z,88.16
2017-09-16T21:25:31.153Z,88.79
2017-09-16T21:27:58.600Z,88.40
2017-09-16T21:30:26.080Z,88.10
2017-09-16T21:32:53.565Z,88.27
2017-09-16T21:35:21.016Z,88.33
2017-09-16T21:37:48.626Z,88.20
2017-09-16T21:40:16.089Z,88.50
2017-09-16T21:42:43.564Z,86.92
2017-09-16T21:45:11.036Z,86.59
2017-09-16T21:47:38.534Z,85.10
2017-09-16T21:50:05.992Z,86.04
2017-09-16T21:52:33.460Z,86.20
2017-09-16T21:55:01.006Z,87.50
2017-09-16T21:57:28.476Z,88.12
2017-09-16T21:59:55.918Z,87.41
2017-09-16T22:02:23.399Z,88.51
2017-09-16T22:04:50.856Z,88.38
2017-09-16T22:07:18.345Z,88.31
2017-09-16T22:09:45.860Z,87.83
2017-09-16T22:12:13.326Z,87.63
2017-09-16T22:14:40.805Z,87.87
2017-09-16T22:17:08.257Z,88.25
2017-09-16T22:19:35.791Z,88.13
2017-09-16T22:22:03.235Z,87.95
2017-09-16T22:24:30.708Z,88.39
2017-09-16T22:26:58.249Z,88.19
2017-09-16T22:29:25.716Z,87.94
2017-09-16T22:31:53.189Z,88.02
2017-09-16T22:34:20.660Z,88.01
2017-09-16T22:36:48.104Z,87.74
2017-09-16T22:39:15.585Z,87.65
2017-09-16T22:41:43.036Z,87.65
2017-09-16T22:44:10.488Z,88.06
2017-09-16T22:46:37.951Z,87.73
2017-09-16T22:49:05.450Z,87.89
2017-09-16T22:51:32.941Z,87.90
2017-09-16T22:54:00.477Z,87.53
2017-09-16T22:56:27.947Z,87.69
2017-09-16T22:58:55.396Z,87.82
2017-09-16T23:01:22.898Z,87.94
2017-09-16T23:03:50.357Z,87.80
2017-09-16T23:06:18.032Z,88.27
2017-09-16T23:08:45.562Z,88.23
2017-09-16T23:11:13.036Z,88.96
2017-09-16T23:13:40.481Z,89.13
2017-09-16T23:16:07.947Z,88.42
2017-09-16T23:18:35.421Z,88.37
2017-09-16T23:21:02.871Z,88.43
2017-09-16T23:23:30.365Z,87.69
2017-09-16T23:25:57.810Z,87.50
2017-09-16T23:28:25.289Z,87.16
2017-09-16T23:30:52.760Z,86.65
2017-09-16T23:33:20.231Z,87.05
2017-09-16T23:35:47.672Z,87.11
2017-09-16T23:38:15.181Z,87.09
2017-09-16T23:40:42.632Z,87.59
2017-09-16T23:43:10.112Z,87.24
2017-09-16T23:45:37.564Z,87.06
2017-09-16T23:48:05.048Z,87.56
2017-09-16T23:50:32.526Z,87.09
2017-09-16T23:53:00.205Z,87.12
2017-09-16T23:55:27.681Z,88.08
2017-09-16T23:57:55.129Z,88.14
